sensor_id;sensor_type;location;lat;lon;timestamp;P1;durP1;ratioP1;P2;durP2;ratioP2
75772;SDS011;64381;0.000;0.000;2023-02-10T00:00:42;7.17;;;4.20;;
75772;SDS011;64381;0.000;0.000;2023-02-10T00:03:07;7.27;;;4.50;;
75772;SDS011;64381;0.000;0.000;2023-02-10T00:05:33;7.17;;;4.43;;
75772;SDS011;64381;0.000;0.000;2023-02-10T00:07:58;6.87;;;4.23;;
75772;SDS011;64381;0.000;0.000;2023-02-10T00:10:23;7.90;;;4.60;;
75772;SDS011;64381;0.000;0.000;2023-02-10T00:12:48;8.50;;;4.80;;
75772;SDS011;64381;0.000;0.000;2023-02-10T00:15:14;7.27;;;4.87;;
75772;SDS011;64381;0.000;0.000;2023-02-10T00:17:39;7.57;;;4.50;;
75772;SDS011;64381;0.000;0.000;2023-02-10T00:20:04;6.37;;;4.27;;
75772;SDS011;64381;0.000;0.000;2023-02-10T00:22:30;6.53;;;4.60;;
75772;SDS011;64381;0.000;0.000;2023-02-10T00:24:55;6.73;;;4.03;;
75772;SDS011;64381;0.000;0.000;2023-02-10T00:27:20;7.47;;;4.40;;
75772;SDS011;64381;0.000;0.000;2023-02-10T00:29:45;7.23;;;4.50;;
75772;SDS011;64381;0.000;0.000;2023-02-10T00:32:10;6.83;;;4.40;;
75772;SDS011;64381;0.000;0.000;2023-02-10T00:34:36;6.37;;;4.20;;
75772;SDS011;64381;0.000;0.000;2023-02-10T00:37:01;6.20;;;3.93;;
75772;SDS011;64381;0.000;0.000;2023-02-10T00:39:26;8.47;;;4.50;;
75772;SDS011;64381;0.000;0.000;2023-02-10T00:41:51;6.30;;;4.03;;
75772;SDS011;64381;0.000;0.000;2023-02-10T00:44:16;7.57;;;4.20;;
75772;SDS011;64381;0.000;0.000;2023-02-10T00:46:42;6.93;;;4.40;;
75772;SDS011;64381;0.000;0.000;2023-02-10T00:49:08;7.13;;;4.50;;
75772;SDS011;64381;0.000;0.000;2023-02-10T00:51:35;6.55;;;4.35;;
75772;SDS011;64381;0.000;0.000;2023-02-10T00:54:00;6.37;;;4.00;;
75772;SDS011;64381;0.000;0.000;2023-02-10T00:56:26;6.00;;;4.07;;
75772;SDS011;64381;0.000;0.000;2023-02-10T00:58:51;6.13;;;4.10;;
75772;SDS011;64381;0.000;0.000;2023-02-10T01:01:16;7.10;;;4.13;;
75772;SDS011;64381;0.000;0.000;2023-02-10T01:03:41;7.03;;;4.43;;
75772;SDS011;64381;0.000;0.000;2023-02-10T01:06:07;6.53;;;4.30;;
75772;SDS011;64381;0.000;0.000;2023-02-10T01:08:33;7.07;;;4.10;;
75772;SDS011;64381;0.000;0.000;2023-02-10T01:10:59;6.83;;;4.10;;
75772;SDS011;64381;0.000;0.000;2023-02-10T01:13:29;6.90;;;4.20;;
75772;SDS011;64381;0.000;0.000;2023-02-10T01:15:54;6.30;;;4.03;;
75772;SDS011;64381;0.000;0.000;2023-02-10T01:18:19;7.20;;;4.07;;
75772;SDS011;64381;0.000;0.000;2023-02-10T01:20:45;6.10;;;3.73;;
75772;SDS011;64381;0.000;0.000;2023-02-10T01:23:10;6.30;;;3.87;;
75772;SDS011;64381;0.000;0.000;2023-02-10T01:25:35;6.72;;;4.15;;
75772;SDS011;64381;0.000;0.000;2023-02-10T01:28:01;7.13;;;4.20;;
75772;SDS011;64381;0.000;0.000;2023-02-10T01:30:28;6.22;;;4.10;;
75772;SDS011;64381;0.000;0.000;2023-02-10T01:32:53;6.77;;;4.10;;
75772;SDS011;64381;0.000;0.000;2023-02-10T01:35:18;6.33;;;3.90;;
75772;SDS011;64381;0.000;0.000;2023-02-10T01:37:43;5.83;;;3.73;;
75772;SDS011;64381;0.000;0.000;2023-02-10T01:40:09;6.57;;;3.63;;
75772;SDS011;64381;0.000;0.000;2023-02-10T01:42:34;6.40;;;3.80;;
75772;SDS011;64381;0.000;0.000;2023-02-10T01:45:09;6.60;;;3.90;;
75772;SDS011;64381;0.000;0.000;2023-02-10T01:47:39;6.10;;;3.75;;
75772;SDS011;64381;0.000;0.000;2023-02-10T01:50:06;6.73;;;3.90;;
75772;SDS011;64381;0.000;0.000;2023-02-10T01:52:32;6.32;;;3.83;;
75772;SDS011;64381;0.000;0.000;2023-02-10T01:54:59;6.60;;;3.90;;
75772;SDS011;64381;0.000;0.000;2023-02-10T01:57:31;6.35;;;3.92;;
75772;SDS011;64381;0.000;0.000;2023-02-10T01:59:57;6.37;;;3.77;;
75772;SDS011;64381;0.000;0.000;2023-02-10T02:02:24;6.15;;;3.60;;
75772;SDS011;64381;0.000;0.000;2023-02-10T02:04:54;6.20;;;3.80;;
75772;SDS011;64381;0.000;0.000;2023-02-10T02:07:24;5.75;;;3.78;;
75772;SDS011;64381;0.000;0.000;2023-02-10T02:09:53;5.97;;;3.85;;
75772;SDS011;64381;0.000;0.000;2023-02-10T02:22:59;6.32;;;3.70;;
75772;SDS011;64381;0.000;0.000;2023-02-10T02:28:16;5.97;;;3.70;;
75772;SDS011;64381;0.000;0.000;2023-02-10T02:30:55;6.50;;;3.63;;
75772;SDS011;64381;0.000;0.000;2023-02-10T02:33:39;5.68;;;3.40;;
75772;SDS011;64381;0.000;0.000;2023-02-10T02:36:12;6.80;;;3.75;;
75772;SDS011;64381;0.000;0.000;2023-02-10T02:38:43;6.10;;;3.87;;
75772;SDS011;64381;0.000;0.000;2023-02-10T02:41:09;5.43;;;3.30;;
75772;SDS011;64381;0.000;0.000;2023-02-10T02:43:34;5.57;;;3.37;;
75772;SDS011;64381;0.000;0.000;2023-02-10T02:46:07;5.78;;;3.63;;
75772;SDS011;64381;0.000;0.000;2023-02-10T02:49:14;5.93;;;3.50;;
75772;SDS011;64381;0.000;0.000;2023-02-10T02:51:46;5.38;;;3.60;;
75772;SDS011;64381;0.000;0.000;2023-02-10T02:54:24;5.43;;;3.42;;
75772;SDS011;64381;0.000;0.000;2023-02-10T02:57:07;5.90;;;3.40;;
75772;SDS011;64381;0.000;0.000;2023-02-10T03:00:09;5.82;;;3.22;;
75772;SDS011;64381;0.000;0.000;2023-02-10T03:02:27;5.65;;;3.78;;
75772;SDS011;64381;0.000;0.000;2023-02-10T03:04:53;5.90;;;3.60;;
75772;SDS011;64381;0.000;0.000;2023-02-10T03:07:18;5.47;;;3.20;;
75772;SDS011;64381;0.000;0.000;2023-02-10T03:09:43;6.90;;;3.97;;
75772;SDS011;64381;0.000;0.000;2023-02-10T03:12:08;6.37;;;3.73;;
75772;SDS011;64381;0.000;0.000;2023-02-10T03:14:34;6.10;;;3.50;;
75772;SDS011;64381;0.000;0.000;2023-02-10T03:16:59;5.63;;;3.20;;
75772;SDS011;64381;0.000;0.000;2023-02-10T03:19:24;5.67;;;3.33;;
75772;SDS011;64381;0.000;0.000;2023-02-10T03:21:49;5.80;;;3.63;;
75772;SDS011;64381;0.000;0.000;2023-02-10T03:24:15;5.83;;;3.40;;
75772;SDS011;64381;0.000;0.000;2023-02-10T03:26:40;5.43;;;3.28;;
75772;SDS011;64381;0.000;0.000;2023-02-10T03:29:06;5.17;;;3.30;;
75772;SDS011;64381;0.000;0.000;2023-02-10T03:31:32;5.30;;;3.10;;
75772;SDS011;64381;0.000;0.000;2023-02-10T03:33:57;5.72;;;3.20;;
75772;SDS011;64381;0.000;0.000;2023-02-10T03:36:22;6.20;;;3.60;;
75772;SDS011;64381;0.000;0.000;2023-02-10T03:38:48;5.50;;;3.17;;
75772;SDS011;64381;0.000;0.000;2023-02-10T03:41:13;6.30;;;3.70;;
75772;SDS011;64381;0.000;0.000;2023-02-10T03:43:39;5.53;;;3.53;;
75772;SDS011;64381;0.000;0.000;2023-02-10T03:46:04;6.07;;;3.47;;
75772;SDS011;64381;0.000;0.000;2023-02-10T03:48:30;5.23;;;3.07;;
75772;SDS011;64381;0.000;0.000;2023-02-10T03:50:55;5.20;;;3.13;;
75772;SDS011;64381;0.000;0.000;2023-02-10T03:53:20;5.60;;;3.30;;
75772;SDS011;64381;0.000;0.000;2023-02-10T03:55:46;4.83;;;2.97;;
75772;SDS011;64381;0.000;0.000;2023-02-10T03:58:11;5.30;;;3.42;;
75772;SDS011;64381;0.000;0.000;2023-02-10T04:00:36;5.80;;;3.40;;
75772;SDS011;64381;0.000;0.000;2023-02-10T04:03:01;5.23;;;3.00;;
75772;SDS011;64381;0.000;0.000;2023-02-10T04:05:27;5.47;;;3.10;;
75772;SDS011;64381;0.000;0.000;2023-02-10T04:07:52;5.97;;;3.47;;
75772;SDS011;64381;0.000;0.000;2023-02-10T04:10:17;5.40;;;3.20;;
75772;SDS011;64381;0.000;0.000;2023-02-10T04:12:43;5.00;;;2.93;;
75772;SDS011;64381;0.000;0.000;2023-02-10T04:15:08;5.30;;;2.80;;
75772;SDS011;64381;0.000;0.000;2023-02-10T04:17:33;5.90;;;3.40;;
75772;SDS011;64381;0.000;0.000;2023-02-10T04:19:59;5.43;;;3.17;;
75772;SDS011;64381;0.000;0.000;2023-02-10T04:22:24;5.13;;;3.10;;
75772;SDS011;64381;0.000;0.000;2023-02-10T04:24:49;5.77;;;3.07;;
75772;SDS011;64381;0.000;0.000;2023-02-10T04:27:14;5.47;;;3.20;;
75772;SDS011;64381;0.000;0.000;2023-02-10T04:29:39;5.47;;;3.20;;
75772;SDS011;64381;0.000;0.000;2023-02-10T04:32:05;5.03;;;3.30;;
75772;SDS011;64381;0.000;0.000;2023-02-10T04:34:31;5.93;;;3.20;;
75772;SDS011;64381;0.000;0.000;2023-02-10T04:36:56;4.77;;;2.80;;
75772;SDS011;64381;0.000;0.000;2023-02-10T04:39:21;5.60;;;3.17;;
75772;SDS011;64381;0.000;0.000;2023-02-10T04:41:47;5.10;;;3.27;;
75772;SDS011;64381;0.000;0.000;2023-02-10T04:44:12;5.10;;;2.87;;
75772;SDS011;64381;0.000;0.000;2023-02-10T04:46:37;4.50;;;2.87;;
75772;SDS011;64381;0.000;0.000;2023-02-10T04:49:02;4.10;;;2.80;;
75772;SDS011;64381;0.000;0.000;2023-02-10T04:51:28;5.53;;;3.27;;
75772;SDS011;64381;0.000;0.000;2023-02-10T04:53:53;4.80;;;2.93;;
75772;SDS011;64381;0.000;0.000;2023-02-10T04:56:18;5.33;;;3.03;;
75772;SDS011;64381;0.000;0.000;2023-02-10T04:58:43;5.47;;;3.07;;
75772;SDS011;64381;0.000;0.000;2023-02-10T05:01:08;5.27;;;3.17;;
75772;SDS011;64381;0.000;0.000;2023-02-10T05:03:34;5.50;;;3.20;;
75772;SDS011;64381;0.000;0.000;2023-02-10T05:05:59;5.37;;;3.10;;
75772;SDS011;64381;0.000;0.000;2023-02-10T05:08:24;4.70;;;3.00;;
75772;SDS011;64381;0.000;0.000;2023-02-10T05:10:50;5.00;;;2.90;;
75772;SDS011;64381;0.000;0.000;2023-02-10T05:13:16;4.83;;;3.00;;
75772;SDS011;64381;0.000;0.000;2023-02-10T05:15:42;4.82;;;2.83;;
75772;SDS011;64381;0.000;0.000;2023-02-10T05:18:08;4.43;;;2.70;;
75772;SDS011;64381;0.000;0.000;2023-02-10T05:20:33;5.20;;;3.20;;
75772;SDS011;64381;0.000;0.000;2023-02-10T05:22:58;4.10;;;2.50;;
75772;SDS011;64381;0.000;0.000;2023-02-10T05:25:23;5.27;;;3.23;;
75772;SDS011;64381;0.000;0.000;2023-02-10T05:27:48;4.67;;;2.67;;
75772;SDS011;64381;0.000;0.000;2023-02-10T05:30:14;5.70;;;3.20;;
75772;SDS011;64381;0.000;0.000;2023-02-10T05:32:40;4.40;;;2.60;;
75772;SDS011;64381;0.000;0.000;2023-02-10T05:35:05;5.73;;;3.03;;
75772;SDS011;64381;0.000;0.000;2023-02-10T05:37:31;5.03;;;2.80;;
75772;SDS011;64381;0.000;0.000;2023-02-10T05:39:56;5.03;;;2.50;;
75772;SDS011;64381;0.000;0.000;2023-02-10T05:42:21;4.63;;;2.70;;
75772;SDS011;64381;0.000;0.000;2023-02-10T05:44:47;4.97;;;2.90;;
75772;SDS011;64381;0.000;0.000;2023-02-10T05:47:12;4.80;;;2.83;;
75772;SDS011;64381;0.000;0.000;2023-02-10T05:49:37;5.40;;;3.00;;
75772;SDS011;64381;0.000;0.000;2023-02-10T05:52:02;4.73;;;2.63;;
75772;SDS011;64381;0.000;0.000;2023-02-10T05:54:28;5.40;;;2.73;;
75772;SDS011;64381;0.000;0.000;2023-02-10T05:56:53;5.00;;;2.80;;
75772;SDS011;64381;0.000;0.000;2023-02-10T05:59:18;4.37;;;2.53;;
75772;SDS011;64381;0.000;0.000;2023-02-10T06:01:43;4.80;;;2.80;;
75772;SDS011;64381;0.000;0.000;2023-02-10T06:04:09;5.10;;;2.97;;
75772;SDS011;64381;0.000;0.000;2023-02-10T06:06:34;4.20;;;2.70;;
75772;SDS011;64381;0.000;0.000;2023-02-10T06:08:59;4.93;;;2.73;;
75772;SDS011;64381;0.000;0.000;2023-02-10T06:11:24;4.63;;;2.70;;
75772;SDS011;64381;0.000;0.000;2023-02-10T06:13:50;5.07;;;2.63;;
75772;SDS011;64381;0.000;0.000;2023-02-10T06:16:15;4.53;;;2.70;;
75772;SDS011;64381;0.000;0.000;2023-02-10T06:18:40;4.47;;;2.40;;
75772;SDS011;64381;0.000;0.000;2023-02-10T06:21:05;5.47;;;2.73;;
75772;SDS011;64381;0.000;0.000;2023-02-10T06:23:31;5.23;;;2.60;;
75772;SDS011;64381;0.000;0.000;2023-02-10T06:25:56;5.00;;;2.60;;
75772;SDS011;64381;0.000;0.000;2023-02-10T06:28:22;4.40;;;2.50;;
75772;SDS011;64381;0.000;0.000;2023-02-10T06:30:48;5.93;;;2.78;;
75772;SDS011;64381;0.000;0.000;2023-02-10T06:33:13;5.80;;;2.90;;
75772;SDS011;64381;0.000;0.000;2023-02-10T06:35:39;5.33;;;2.90;;
75772;SDS011;64381;0.000;0.000;2023-02-10T06:38:04;5.07;;;2.77;;
75772;SDS011;64381;0.000;0.000;2023-02-10T06:40:29;4.33;;;2.70;;
75772;SDS011;64381;0.000;0.000;2023-02-10T06:42:54;4.90;;;2.67;;
75772;SDS011;64381;0.000;0.000;2023-02-10T06:45:20;4.53;;;2.90;;
75772;SDS011;64381;0.000;0.000;2023-02-10T06:47:45;4.50;;;2.47;;
75772;SDS011;64381;0.000;0.000;2023-02-10T06:50:10;4.90;;;2.70;;
75772;SDS011;64381;0.000;0.000;2023-02-10T06:52:35;4.30;;;2.67;;
75772;SDS011;64381;0.000;0.000;2023-02-10T06:55:00;5.07;;;2.80;;
75772;SDS011;64381;0.000;0.000;2023-02-10T06:57:26;4.40;;;2.70;;
75772;SDS011;64381;0.000;0.000;2023-02-10T06:59:51;5.63;;;2.97;;
75772;SDS011;64381;0.000;0.000;2023-02-10T07:02:16;5.37;;;2.97;;
75772;SDS011;64381;0.000;0.000;2023-02-10T07:04:41;4.53;;;2.60;;
75772;SDS011;64381;0.000;0.000;2023-02-10T07:07:07;5.23;;;2.60;;
75772;SDS011;64381;0.000;0.000;2023-02-10T07:09:32;5.50;;;2.70;;
75772;SDS011;64381;0.000;0.000;2023-02-10T07:11:57;5.00;;;2.87;;
75772;SDS011;64381;0.000;0.000;2023-02-10T07:14:23;4.03;;;2.30;;
75772;SDS011;64381;0.000;0.000;2023-02-10T07:16:48;4.82;;;2.67;;
75772;SDS011;64381;0.000;0.000;2023-02-10T07:19:14;4.90;;;2.97;;
75772;SDS011;64381;0.000;0.000;2023-02-10T07:21:39;6.10;;;2.70;;
75772;SDS011;64381;0.000;0.000;2023-02-10T07:24:04;4.77;;;2.80;;
75772;SDS011;64381;0.000;0.000;2023-02-10T07:26:30;5.07;;;2.85;;
75772;SDS011;64381;0.000;0.000;2023-02-10T07:28:55;4.63;;;2.70;;
75772;SDS011;64381;0.000;0.000;2023-02-10T07:31:20;5.10;;;2.80;;
75772;SDS011;64381;0.000;0.000;2023-02-10T07:33:46;4.77;;;2.70;;
75772;SDS011;64381;0.000;0.000;2023-02-10T07:36:11;5.07;;;2.60;;
75772;SDS011;64381;0.000;0.000;2023-02-10T07:38:36;5.60;;;2.70;;
75772;SDS011;64381;0.000;0.000;2023-02-10T07:41:01;5.00;;;2.77;;
75772;SDS011;64381;0.000;0.000;2023-02-10T07:43:27;4.90;;;2.70;;
75772;SDS011;64381;0.000;0.000;2023-02-10T07:45:52;4.43;;;2.60;;
75772;SDS011;64381;0.000;0.000;2023-02-10T07:48:17;4.40;;;2.50;;
75772;SDS011;64381;0.000;0.000;2023-02-10T07:50:43;5.38;;;2.85;;
75772;SDS011;64381;0.000;0.000;2023-02-10T07:53:08;4.27;;;2.50;;
75772;SDS011;64381;0.000;0.000;2023-02-10T07:55:35;5.73;;;2.80;;
75772;SDS011;64381;0.000;0.000;2023-02-10T07:58:01;6.35;;;2.95;;
75772;SDS011;64381;0.000;0.000;2023-02-10T08:00:26;4.93;;;2.60;;
75772;SDS011;64381;0.000;0.000;2023-02-10T08:02:52;5.07;;;2.77;;
75772;SDS011;64381;0.000;0.000;2023-02-10T08:05:17;5.87;;;3.03;;
75772;SDS011;64381;0.000;0.000;2023-02-10T08:07:42;5.27;;;2.63;;
75772;SDS011;64381;0.000;0.000;2023-02-10T08:10:07;4.97;;;2.83;;
75772;SDS011;64381;0.000;0.000;2023-02-10T08:12:33;5.97;;;3.37;;
75772;SDS011;64381;0.000;0.000;2023-02-10T08:14:58;6.97;;;3.50;;
75772;SDS011;64381;0.000;0.000;2023-02-10T08:17:23;7.13;;;3.90;;
75772;SDS011;64381;0.000;0.000;2023-02-10T08:19:48;7.83;;;4.00;;
75772;SDS011;64381;0.000;0.000;2023-02-10T08:22:14;8.40;;;3.97;;
75772;SDS011;64381;0.000;0.000;2023-02-10T08:24:39;6.13;;;3.60;;
75772;SDS011;64381;0.000;0.000;2023-02-10T08:27:04;7.20;;;3.60;;
75772;SDS011;64381;0.000;0.000;2023-02-10T08:29:30;9.38;;;3.60;;
75772;SDS011;64381;0.000;0.000;2023-02-10T08:31:55;8.40;;;4.73;;
75772;SDS011;64381;0.000;0.000;2023-02-10T08:34:20;7.93;;;4.00;;
75772;SDS011;64381;0.000;0.000;2023-02-10T08:36:46;8.93;;;4.00;;
75772;SDS011;64381;0.000;0.000;2023-02-10T08:39:12;8.48;;;3.92;;
75772;SDS011;64381;0.000;0.000;2023-02-10T08:41:38;7.67;;;4.40;;
75772;SDS011;64381;0.000;0.000;2023-02-10T08:44:03;7.90;;;4.07;;
75772;SDS011;64381;0.000;0.000;2023-02-10T08:46:29;8.35;;;3.83;;
75772;SDS011;64381;0.000;0.000;2023-02-10T08:48:55;7.83;;;4.43;;
75772;SDS011;64381;0.000;0.000;2023-02-10T08:51:20;8.10;;;3.97;;
75772;SDS011;64381;0.000;0.000;2023-02-10T08:53:45;7.90;;;3.83;;
75772;SDS011;64381;0.000;0.000;2023-02-10T08:56:13;7.77;;;4.00;;
75772;SDS011;64381;0.000;0.000;2023-02-10T08:58:40;10.15;;;4.03;;
75772;SDS011;64381;0.000;0.000;2023-02-10T09:01:12;10.77;;;3.73;;
75772;SDS011;64381;0.000;0.000;2023-02-10T09:03:40;13.02;;;3.90;;
75772;SDS011;64381;0.000;0.000;2023-02-10T09:06:05;10.90;;;3.73;;
75772;SDS011;64381;0.000;0.000;2023-02-10T09:08:37;11.68;;;4.03;;
75772;SDS011;64381;0.000;0.000;2023-02-10T09:11:04;9.60;;;4.07;;
75772;SDS011;64381;0.000;0.000;2023-02-10T09:13:30;9.38;;;3.80;;
75772;SDS011;64381;0.000;0.000;2023-02-10T09:15:55;9.00;;;4.00;;
75772;SDS011;64381;0.000;0.000;2023-02-10T09:18:20;9.57;;;4.03;;
75772;SDS011;64381;0.000;0.000;2023-02-10T09:20:46;9.97;;;4.30;;
75772;SDS011;64381;0.000;0.000;2023-02-10T09:23:11;7.00;;;4.03;;
75772;SDS011;64381;0.000;0.000;2023-02-10T09:25:36;10.53;;;4.17;;
75772;SDS011;64381;0.000;0.000;2023-02-10T09:28:01;9.27;;;4.10;;
75772;SDS011;64381;0.000;0.000;2023-02-10T09:30:26;8.17;;;3.87;;
75772;SDS011;64381;0.000;0.000;2023-02-10T09:32:52;10.43;;;4.40;;
75772;SDS011;64381;0.000;0.000;2023-02-10T09:35:18;8.77;;;4.13;;
75772;SDS011;64381;0.000;0.000;2023-02-10T09:37:43;9.37;;;4.00;;
75772;SDS011;64381;0.000;0.000;2023-02-10T09:40:16;9.43;;;4.17;;
75772;SDS011;64381;0.000;0.000;2023-02-10T09:42:54;9.18;;;3.67;;
75772;SDS011;64381;0.000;0.000;2023-02-10T09:45:41;8.88;;;3.65;;
75772;SDS011;64381;0.000;0.000;2023-02-10T09:50:43;7.65;;;3.90;;
75772;SDS011;64381;0.000;0.000;2023-02-10T09:53:35;7.15;;;3.83;;
75772;SDS011;64381;0.000;0.000;2023-02-10T09:56:04;10.43;;;3.83;;
75772;SDS011;64381;0.000;0.000;2023-02-10T09:58:36;8.83;;;4.10;;
75772;SDS011;64381;0.000;0.000;2023-02-10T10:04:00;9.43;;;3.83;;
75772;SDS011;64381;0.000;0.000;2023-02-10T10:06:29;6.93;;;3.58;;
75772;SDS011;64381;0.000;0.000;2023-02-10T10:14:16;7.85;;;3.72;;
75772;SDS011;64381;0.000;0.000;2023-02-10T10:19:50;8.02;;;4.00;;
75772;SDS011;64381;0.000;0.000;2023-02-10T10:30:54;7.47;;;3.58;;
75772;SDS011;64381;0.000;0.000;2023-02-10T10:33:31;9.80;;;4.10;;
75772;SDS011;64381;0.000;0.000;2023-02-10T10:35:57;7.93;;;3.35;;
75772;SDS011;64381;0.000;0.000;2023-02-10T10:38:24;6.40;;;3.33;;
75772;SDS011;64381;0.000;0.000;2023-02-10T10:40:58;6.38;;;3.22;;
75772;SDS011;64381;0.000;0.000;2023-02-10T10:43:29;7.67;;;3.67;;
75772;SDS011;64381;0.000;0.000;2023-02-10T10:46:06;6.93;;;3.40;;
75772;SDS011;64381;0.000;0.000;2023-02-10T10:48:37;7.30;;;3.45;;
75772;SDS011;64381;0.000;0.000;2023-02-10T10:51:06;6.80;;;3.20;;
75772;SDS011;64381;0.000;0.000;2023-02-10T10:56:00;6.65;;;3.30;;
75772;SDS011;64381;0.000;0.000;2023-02-10T10:58:28;6.72;;;3.25;;
75772;SDS011;64381;0.000;0.000;2023-02-10T11:00:57;7.78;;;3.50;;
75772;SDS011;64381;0.000;0.000;2023-02-10T11:03:24;7.37;;;3.20;;
75772;SDS011;64381;0.000;0.000;2023-02-10T11:05:57;7.00;;;4.15;;
75772;SDS011;64381;0.000;0.000;2023-02-10T11:08:30;6.10;;;3.22;;
75772;SDS011;64381;0.000;0.000;2023-02-10T11:10:59;7.27;;;3.47;;
75772;SDS011;64381;0.000;0.000;2023-02-10T11:13:27;7.15;;;3.33;;
75772;SDS011;64381;0.000;0.000;2023-02-10T11:16:04;6.35;;;3.13;;
75772;SDS011;64381;0.000;0.000;2023-02-10T11:18:38;7.78;;;3.15;;
75772;SDS011;64381;0.000;0.000;2023-02-10T11:21:05;8.33;;;3.47;;
75772;SDS011;64381;0.000;0.000;2023-02-10T11:23:35;5.60;;;3.10;;
75772;SDS011;64381;0.000;0.000;2023-02-10T11:26:21;5.82;;;3.10;;
75772;SDS011;64381;0.000;0.000;2023-02-10T11:28:48;5.55;;;3.15;;
75772;SDS011;64381;0.000;0.000;2023-02-10T11:31:33;6.85;;;3.42;;
75772;SDS011;64381;0.000;0.000;2023-02-10T11:34:03;6.07;;;3.30;;
75772;SDS011;64381;0.000;0.000;2023-02-10T11:36:41;7.57;;;3.67;;
75772;SDS011;64381;0.000;0.000;2023-02-10T11:41:45;6.03;;;3.00;;
75772;SDS011;64381;0.000;0.000;2023-02-10T11:44:22;5.77;;;2.77;;
75772;SDS011;64381;0.000;0.000;2023-02-10T11:46:57;6.70;;;3.03;;
75772;SDS011;64381;0.000;0.000;2023-02-10T11:49:24;6.30;;;3.30;;
75772;SDS011;64381;0.000;0.000;2023-02-10T11:51:51;6.68;;;3.00;;
75772;SDS011;64381;0.000;0.000;2023-02-10T11:54:18;6.20;;;2.70;;
75772;SDS011;64381;0.000;0.000;2023-02-10T11:57:04;15.47;;;5.70;;
75772;SDS011;64381;0.000;0.000;2023-02-10T11:59:52;14.35;;;5.20;;
75772;SDS011;64381;0.000;0.000;2023-02-10T12:05:07;11.30;;;4.78;;
75772;SDS011;64381;0.000;0.000;2023-02-10T12:08:07;9.57;;;4.18;;
75772;SDS011;64381;0.000;0.000;2023-02-10T12:10:41;8.77;;;4.27;;
75772;SDS011;64381;0.000;0.000;2023-02-10T12:13:19;10.60;;;4.72;;
75772;SDS011;64381;0.000;0.000;2023-02-10T12:18:45;9.45;;;4.07;;
75772;SDS011;64381;0.000;0.000;2023-02-10T12:21:33;8.65;;;3.60;;
75772;SDS011;64381;0.000;0.000;2023-02-10T12:24:07;9.67;;;3.63;;
75772;SDS011;64381;0.000;0.000;2023-02-10T12:26:45;10.02;;;3.90;;
75772;SDS011;64381;0.000;0.000;2023-02-10T12:35:08;7.45;;;3.53;;
75772;SDS011;64381;0.000;0.000;2023-02-10T12:38:08;7.67;;;3.83;;
75772;SDS011;64381;0.000;0.000;2023-02-10T12:52:00;8.50;;;3.30;;
75772;SDS011;64381;0.000;0.000;2023-02-10T12:54:34;7.15;;;3.00;;
75772;SDS011;64381;0.000;0.000;2023-02-10T12:57:10;8.95;;;3.55;;
75772;SDS011;64381;0.000;0.000;2023-02-10T12:59:54;7.47;;;3.13;;
75772;SDS011;64381;0.000;0.000;2023-02-10T13:02:38;8.45;;;3.67;;
75772;SDS011;64381;0.000;0.000;2023-02-10T13:05:07;6.60;;;3.00;;
75772;SDS011;64381;0.000;0.000;2023-02-10T13:10:33;6.70;;;3.47;;
75772;SDS011;64381;0.000;0.000;2023-02-10T13:13:06;8.13;;;3.50;;
75772;SDS011;64381;0.000;0.000;2023-02-10T13:18:33;8.13;;;3.13;;
75772;SDS011;64381;0.000;0.000;2023-02-10T13:21:15;6.70;;;3.00;;
75772;SDS011;64381;0.000;0.000;2023-02-10T13:34:34;7.45;;;2.80;;
75772;SDS011;64381;0.000;0.000;2023-02-10T13:37:05;6.60;;;3.17;;
75772;SDS011;64381;0.000;0.000;2023-02-10T13:39:33;6.30;;;2.80;;
75772;SDS011;64381;0.000;0.000;2023-02-10T13:44:35;6.53;;;3.20;;
75772;SDS011;64381;0.000;0.000;2023-02-10T13:49:33;6.43;;;2.80;;
75772;SDS011;64381;0.000;0.000;2023-02-10T13:52:18;5.65;;;2.80;;
75772;SDS011;64381;0.000;0.000;2023-02-10T13:54:59;7.68;;;3.03;;
75772;SDS011;64381;0.000;0.000;2023-02-10T13:57:35;6.10;;;2.90;;
75772;SDS011;64381;0.000;0.000;2023-02-10T14:00:11;5.97;;;2.97;;
75772;SDS011;64381;0.000;0.000;2023-02-10T14:02:41;5.65;;;2.72;;
75772;SDS011;64381;0.000;0.000;2023-02-10T14:07:51;6.35;;;2.90;;
75772;SDS011;64381;0.000;0.000;2023-02-10T14:12:57;6.40;;;3.00;;
75772;SDS011;64381;0.000;0.000;2023-02-10T14:15:26;5.65;;;2.70;;
75772;SDS011;64381;0.000;0.000;2023-02-10T14:17:55;5.60;;;2.90;;
75772;SDS011;64381;0.000;0.000;2023-02-10T14:20:25;5.72;;;2.85;;
75772;SDS011;64381;0.000;0.000;2023-02-10T14:22:53;5.20;;;2.70;;
75772;SDS011;64381;0.000;0.000;2023-02-10T14:27:57;5.22;;;2.78;;
75772;SDS011;64381;0.000;0.000;2023-02-10T14:30:23;5.87;;;2.67;;
75772;SDS011;64381;0.000;0.000;2023-02-10T14:33:03;5.82;;;2.60;;
75772;SDS011;64381;0.000;0.000;2023-02-10T14:35:30;6.18;;;2.70;;
75772;SDS011;64381;0.000;0.000;2023-02-10T14:37:56;5.80;;;2.70;;
75772;SDS011;64381;0.000;0.000;2023-02-10T14:40:23;5.43;;;2.65;;
75772;SDS011;64381;0.000;0.000;2023-02-10T14:42:50;4.95;;;2.55;;
75772;SDS011;64381;0.000;0.000;2023-02-10T14:45:19;6.53;;;2.90;;
75772;SDS011;64381;0.000;0.000;2023-02-10T14:47:49;6.95;;;2.85;;
75772;SDS011;64381;0.000;0.000;2023-02-10T14:50:23;5.63;;;2.85;;
75772;SDS011;64381;0.000;0.000;2023-02-10T14:52:53;5.37;;;2.53;;
75772;SDS011;64381;0.000;0.000;2023-02-10T15:00:36;4.47;;;2.40;;
75772;SDS011;64381;0.000;0.000;2023-02-10T15:03:03;4.88;;;2.53;;
75772;SDS011;64381;0.000;0.000;2023-02-10T15:05:31;5.00;;;2.42;;
75772;SDS011;64381;0.000;0.000;2023-02-10T15:08:02;5.10;;;2.83;;
75772;SDS011;64381;0.000;0.000;2023-02-10T15:10:40;5.18;;;2.60;;
75772;SDS011;64381;0.000;0.000;2023-02-10T15:13:09;5.03;;;2.47;;
75772;SDS011;64381;0.000;0.000;2023-02-10T15:15:35;5.07;;;2.50;;
75772;SDS011;64381;0.000;0.000;2023-02-10T15:18:05;5.10;;;2.80;;
75772;SDS011;64381;0.000;0.000;2023-02-10T15:20:33;4.25;;;2.50;;
75772;SDS011;64381;0.000;0.000;2023-02-10T15:28:00;5.18;;;2.45;;
75772;SDS011;64381;0.000;0.000;2023-02-10T15:30:32;5.32;;;2.47;;
75772;SDS011;64381;0.000;0.000;2023-02-10T15:33:17;5.35;;;2.60;;
75772;SDS011;64381;0.000;0.000;2023-02-10T15:35:54;4.87;;;2.50;;
75772;SDS011;64381;0.000;0.000;2023-02-10T15:38:22;5.18;;;2.50;;
75772;SDS011;64381;0.000;0.000;2023-02-10T15:40:52;5.70;;;2.70;;
75772;SDS011;64381;0.000;0.000;2023-02-10T15:43:26;4.43;;;2.38;;
75772;SDS011;64381;0.000;0.000;2023-02-10T15:48:52;5.13;;;2.80;;
75772;SDS011;64381;0.000;0.000;2023-02-10T15:51:24;5.60;;;2.60;;
75772;SDS011;64381;0.000;0.000;2023-02-10T15:53:51;4.70;;;2.53;;
75772;SDS011;64381;0.000;0.000;2023-02-10T15:56:18;4.53;;;2.40;;
75772;SDS011;64381;0.000;0.000;2023-02-10T15:58:43;5.50;;;2.70;;
75772;SDS011;64381;0.000;0.000;2023-02-10T16:01:08;4.50;;;2.60;;
75772;SDS011;64381;0.000;0.000;2023-02-10T16:03:33;5.43;;;2.67;;
75772;SDS011;64381;0.000;0.000;2023-02-10T16:05:59;4.40;;;2.40;;
75772;SDS011;64381;0.000;0.000;2023-02-10T16:08:24;4.13;;;2.40;;
75772;SDS011;64381;0.000;0.000;2023-02-10T16:10:49;4.83;;;2.40;;
75772;SDS011;64381;0.000;0.000;2023-02-10T16:13:14;4.43;;;2.50;;
75772;SDS011;64381;0.000;0.000;2023-02-10T16:15:40;5.20;;;2.40;;
75772;SDS011;64381;0.000;0.000;2023-02-10T16:18:07;4.53;;;2.50;;
75772;SDS011;64381;0.000;0.000;2023-02-10T16:20:34;5.82;;;2.63;;
75772;SDS011;64381;0.000;0.000;2023-02-10T16:23:00;5.30;;;2.57;;
75772;SDS011;64381;0.000;0.000;2023-02-10T16:25:26;4.40;;;2.50;;
75772;SDS011;64381;0.000;0.000;2023-02-10T16:27:52;4.20;;;2.20;;
75772;SDS011;64381;0.000;0.000;2023-02-10T16:30:20;4.45;;;2.30;;
75772;SDS011;64381;0.000;0.000;2023-02-10T16:32:46;5.18;;;2.60;;
75772;SDS011;64381;0.000;0.000;2023-02-10T16:35:12;3.73;;;2.07;;
75772;SDS011;64381;0.000;0.000;2023-02-10T16:37:38;4.70;;;2.47;;
75772;SDS011;64381;0.000;0.000;2023-02-10T16:40:03;4.77;;;2.30;;
75772;SDS011;64381;0.000;0.000;2023-02-10T16:42:29;4.53;;;2.40;;
75772;SDS011;64381;0.000;0.000;2023-02-10T16:44:55;4.73;;;2.40;;
75772;SDS011;64381;0.000;0.000;2023-02-10T16:47:20;4.63;;;2.30;;
75772;SDS011;64381;0.000;0.000;2023-02-10T16:49:46;4.72;;;2.45;;
75772;SDS011;64381;0.000;0.000;2023-02-10T16:52:12;4.10;;;2.20;;